sensor_id;sensor_type;location;lat;lon;timestamp;temperature;humidity
4596;DHT22;2310;49.978;8.742;2023-02-28T00:02:59;2.10;99.90
4596;DHT22;2310;49.978;8.742;2023-02-28T00:07:00;2.20;99.90
4596;DHT22;2310;49.978;8.742;2023-02-28T00:11:07;2.20;99.90
4596;DHT22;2310;49.978;8.742;2023-02-28T00:15:10;2.20;99.90
4596;DHT22;2310;49.978;8.742;2023-02-28T00:19:11;2.10;99.90
4596;DHT22;2310;49.978;8.742;2023-02-28T00:23:14;2.10;99.90
4596;DHT22;2310;49.978;8.742;2023-02-28T00:27:15;2.00;99.90
4596;DHT22;2310;49.978;8.742;2023-02-28T00:31:16;2.00;99.90
4596;DHT22;2310;49.978;8.742;2023-02-28T00:35:18;2.10;99.90
4596;DHT22;2310;49.978;8.742;2023-02-28T00:39:19;2.00;99.90
4596;DHT22;2310;49.978;8.742;2023-02-28T00:43:20;2.00;99.90
4596;DHT22;2310;49.978;8.742;2023-02-28T00:47:22;1.80;99.90
4596;DHT22;2310;49.978;8.742;2023-02-28T00:51:23;1.80;99.90
4596;DHT22;2310;49.978;8.742;2023-02-28T00:55:24;1.70;99.90
4596;DHT22;2310;49.978;8.742;2023-02-28T00:59:25;1.70;99.90
4596;DHT22;2310;49.978;8.742;2023-02-28T01:03:27;1.60;99.90
4596;DHT22;2310;49.978;8.742;2023-02-28T01:07:28;1.50;99.90
4596;DHT22;2310;49.978;8.742;2023-02-28T01:11:30;1.60;99.90
4596;DHT22;2310;49.978;8.742;2023-02-28T01:15:32;1.60;99.90
4596;DHT22;2310;49.978;8.742;2023-02-28T01:19:33;1.70;99.90
4596;DHT22;2310;49.978;8.742;2023-02-28T01:23:35;1.70;99.90
4596;DHT22;2310;49.978;8.742;2023-02-28T01:27:36;1.60;99.90
4596;DHT22;2310;49.978;8.742;2023-02-28T01:31:37;1.60;99.90
4596;DHT22;2310;49.978;8.742;2023-02-28T01:35:38;1.70;99.90
4596;DHT22;2310;49.978;8.742;2023-02-28T01:39:39;1.70;99.90
4596;DHT22;2310;49.978;8.742;2023-02-28T01:47:52;1.50;99.90
4596;DHT22;2310;49.978;8.742;2023-02-28T01:51:55;1.50;99.90
4596;DHT22;2310;49.978;8.742;2023-02-28T01:55:57;1.40;99.90
4596;DHT22;2310;49.978;8.742;2023-02-28T02:00:01;1.30;99.90
4596;DHT22;2310;49.978;8.742;2023-02-28T02:04:08;1.20;99.90
4596;DHT22;2310;49.978;8.742;2023-02-28T02:08:12;1.30;99.90
4596;DHT22;2310;49.978;8.742;2023-02-28T02:12:33;1.20;99.90
4596;DHT22;2310;49.978;8.742;2023-02-28T02:25:11;1.10;99.90
4596;DHT22;2310;49.978;8.742;2023-02-28T02:38:23;1.10;99.90
4596;DHT22;2310;49.978;8.742;2023-02-28T02:42:45;1.10;99.90
4596;DHT22;2310;49.978;8.742;2023-02-28T02:46:48;1.00;99.90
4596;DHT22;2310;49.978;8.742;2023-02-28T02:50:54;1.10;99.90
4596;DHT22;2310;49.978;8.742;2023-02-28T02:54:57;1.00;99.90
4596;DHT22;2310;49.978;8.742;2023-02-28T02:59:03;0.90;99.90
4596;DHT22;2310;49.978;8.742;2023-02-28T03:03:05;0.90;99.90
4596;DHT22;2310;49.978;8.742;2023-02-28T03:07:08;0.90;99.90
4596;DHT22;2310;49.978;8.742;2023-02-28T03:11:12;0.90;99.90
4596;DHT22;2310;49.978;8.742;2023-02-28T03:15:19;1.00;99.90
4596;DHT22;2310;49.978;8.742;2023-02-28T03:23:48;1.10;99.90
4596;DHT22;2310;49.978;8.742;2023-02-28T03:27:59;1.20;99.90
4596;DHT22;2310;49.978;8.742;2023-02-28T03:32:23;1.00;99.90
4596;DHT22;2310;49.978;8.742;2023-02-28T03:36:27;1.00;99.90
4596;DHT22;2310;49.978;8.742;2023-02-28T03:40:32;1.00;99.90
4596;DHT22;2310;49.978;8.742;2023-02-28T03:44:40;1.20;99.90
4596;DHT22;2310;49.978;8.742;2023-02-28T03:48:44;0.90;99.90
4596;DHT22;2310;49.978;8.742;2023-02-28T03:52:50;1.00;99.90
4596;DHT22;2310;49.978;8.742;2023-02-28T03:57:11;1.20;99.90
4596;DHT22;2310;49.978;8.742;2023-02-28T04:05:21;1.10;99.90
4596;DHT22;2310;49.978;8.742;2023-02-28T04:09:22;1.00;99.90
4596;DHT22;2310;49.978;8.742;2023-02-28T04:13:24;0.70;99.90
4596;DHT22;2310;49.978;8.742;2023-02-28T04:17:25;0.60;99.90
4596;DHT22;2310;49.978;8.742;2023-02-28T04:21:28;0.70;99.90
4596;DHT22;2310;49.978;8.742;2023-02-28T04:25:29;0.60;99.90
4596;DHT22;2310;49.978;8.742;2023-02-28T04:29:31;0.70;99.90
4596;DHT22;2310;49.978;8.742;2023-02-28T04:33:35;0.60;99.90
4596;DHT22;2310;49.978;8.742;2023-02-28T04:37:36;0.40;99.90
4596;DHT22;2310;49.978;8.742;2023-02-28T04:41:37;0.40;99.90
4596;DHT22;2310;49.978;8.742;2023-02-28T04:45:39;0.40;99.90
4596;DHT22;2310;49.978;8.742;2023-02-28T04:49:40;0.30;99.90
4596;DHT22;2310;49.978;8.742;2023-02-28T04:53:42;0.40;99.90
4596;DHT22;2310;49.978;8.742;2023-02-28T04:57:44;0.70;99.90
4596;DHT22;2310;49.978;8.742;2023-02-28T05:01:47;0.70;99.90
4596;DHT22;2310;49.978;8.742;2023-02-28T05:05:48;0.70;99.90
4596;DHT22;2310;49.978;8.742;2023-02-28T05:09:50;0.70;99.90
4596;DHT22;2310;49.978;8.742;2023-02-28T05:13:51;0.70;99.90
4596;DHT22;2310;49.978;8.742;2023-02-28T05:17:53;0.60;99.90
4596;DHT22;2310;49.978;8.742;2023-02-28T05:21:55;0.60;99.90
4596;DHT22;2310;49.978;8.742;2023-02-28T05:25:56;0.60;99.90
4596;DHT22;2310;49.978;8.742;2023-02-28T05:29:58;0.40;99.90
4596;DHT22;2310;49.978;8.742;2023-02-28T05:33:59;0.40;99.90
4596;DHT22;2310;49.978;8.742;2023-02-28T05:38:01;0.40;99.90
4596;DHT22;2310;49.978;8.742;2023-02-28T05:42:03;0.30;99.90
4596;DHT22;2310;49.978;8.742;2023-02-28T05:46:09;0.30;99.90
4596;DHT22;2310;49.978;8.742;2023-02-28T05:50:11;0.30;99.90
4596;DHT22;2310;49.978;8.742;2023-02-28T05:54:12;0.30;99.90
4596;DHT22;2310;49.978;8.742;2023-02-28T05:58:15;0.40;99.90
4596;DHT22;2310;49.978;8.742;2023-02-28T06:02:17;0.40;99.90
4596;DHT22;2310;49.978;8.742;2023-02-28T06:06:18;0.40;99.90
4596;DHT22;2310;49.978;8.742;2023-02-28T06:10:20;0.40;99.90
4596;DHT22;2310;49.978;8.742;2023-02-28T06:14:21;0.40;99.90
4596;DHT22;2310;49.978;8.742;2023-02-28T06:18:22;0.30;99.90
4596;DHT22;2310;49.978;8.742;2023-02-28T06:22:23;0.40;99.90
4596;DHT22;2310;49.978;8.742;2023-02-28T06:26:25;0.40;99.90
4596;DHT22;2310;49.978;8.742;2023-02-28T06:30:27;0.40;99.90
4596;DHT22;2310;49.978;8.742;2023-02-28T06:34:30;0.40;99.90
4596;DHT22;2310;49.978;8.742;2023-02-28T06:38:32;0.40;99.90
4596;DHT22;2310;49.978;8.742;2023-02-28T06:42:34;0.40;99.90
4596;DHT22;2310;49.978;8.742;2023-02-28T06:46:35;0.30;99.90
4596;DHT22;2310;49.978;8.742;2023-02-28T06:50:37;0.30;99.90
4596;DHT22;2310;49.978;8.742;2023-02-28T06:54:38;0.60;99.90
4596;DHT22;2310;49.978;8.742;2023-02-28T06:58:40;0.60;99.90
4596;DHT22;2310;49.978;8.742;2023-02-28T07:02:41;0.60;99.90
4596;DHT22;2310;49.978;8.742;2023-02-28T07:06:43;0.60;99.90
4596;DHT22;2310;49.978;8.742;2023-02-28T07:10:44;0.60;99.90
4596;DHT22;2310;49.978;8.742;2023-02-28T07:14:45;0.80;99.90
4596;DHT22;2310;49.978;8.742;2023-02-28T07:18:46;0.80;99.90
4596;DHT22;2310;49.978;8.742;2023-02-28T07:22:49;1.00;99.90
4596;DHT22;2310;49.978;8.742;2023-02-28T07:26:52;1.10;99.90
4596;DHT22;2310;49.978;8.742;2023-02-28T07:30:53;1.40;99.90
4596;DHT22;2310;49.978;8.742;2023-02-28T07:34:54;1.60;99.90
4596;DHT22;2310;49.978;8.742;2023-02-28T07:38:56;1.80;99.90
4596;DHT22;2310;49.978;8.742;2023-02-28T07:43:00;1.80;99.90
4596;DHT22;2310;49.978;8.742;2023-02-28T07:47:01;2.10;99.90
4596;DHT22;2310;49.978;8.742;2023-02-28T07:51:03;2.30;99.90
4596;DHT22;2310;49.978;8.742;2023-02-28T07:55:05;2.60;99.90
4596;DHT22;2310;49.978;8.742;2023-02-28T07:59:07;2.70;99.90
4596;DHT22;2310;49.978;8.742;2023-02-28T08:03:13;2.80;99.90
4596;DHT22;2310;49.978;8.742;2023-02-28T08:07:15;3.00;99.90
4596;DHT22;2310;49.978;8.742;2023-02-28T08:11:17;3.20;99.90
4596;DHT22;2310;49.978;8.742;2023-02-28T08:15:18;3.60;99.90
4596;DHT22;2310;49.978;8.742;2023-02-28T08:19:20;3.50;99.90
4596;DHT22;2310;49.978;8.742;2023-02-28T08:23:21;3.60;99.90
4596;DHT22;2310;49.978;8.742;2023-02-28T08:27:22;3.80;99.80
4596;DHT22;2310;49.978;8.742;2023-02-28T08:31:23;3.70;98.80
4596;DHT22;2310;49.978;8.742;2023-02-28T08:35:24;4.10;97.20
4596;DHT22;2310;49.978;8.742;2023-02-28T08:39:26;4.40;94.10
4596;DHT22;2310;49.978;8.742;2023-02-28T08:43:28;4.60;90.40
4596;DHT22;2310;49.978;8.742;2023-02-28T08:47:29;4.40;90.50
4596;DHT22;2310;49.978;8.742;2023-02-28T08:51:31;4.30;91.00
4596;DHT22;2310;49.978;8.742;2023-02-28T08:55:32;4.30;90.40
4596;DHT22;2310;49.978;8.742;2023-02-28T08:59:34;4.60;90.90
4596;DHT22;2310;49.978;8.742;2023-02-28T09:03:36;5.00;87.20
4596;DHT22;2310;49.978;8.742;2023-02-28T09:07:37;5.30;81.50
4596;DHT22;2310;49.978;8.742;2023-02-28T09:11:38;5.10;80.00
4596;DHT22;2310;49.978;8.742;2023-02-28T09:15:39;4.80;83.10
4596;DHT22;2310;49.978;8.742;2023-02-28T09:19:41;4.90;80.40
4596;DHT22;2310;49.978;8.742;2023-02-28T09:23:44;5.20;83.10
4596;DHT22;2310;49.978;8.742;2023-02-28T09:27:46;5.40;80.30
4596;DHT22;2310;49.978;8.742;2023-02-28T09:31:47;5.70;75.50
4596;DHT22;2310;49.978;8.742;2023-02-28T09:35:49;6.00;73.40
4596;DHT22;2310;49.978;8.742;2023-02-28T09:39:50;5.70;68.40
4596;DHT22;2310;49.978;8.742;2023-02-28T09:43:55;5.40;70.30
4596;DHT22;2310;49.978;8.742;2023-02-28T09:47:59;5.60;67.80
4596;DHT22;2310;49.978;8.742;2023-02-28T09:52:17;5.90;63.70
4596;DHT22;2310;49.978;8.742;2023-02-28T09:56:31;5.80;62.70
4596;DHT22;2310;49.978;8.742;2023-02-28T10:00:34;5.60;61.30
4596;DHT22;2310;49.978;8.742;2023-02-28T10:04:43;5.30;61.30
4596;DHT22;2310;49.978;8.742;2023-02-28T10:09:03;5.30;62.10
4596;DHT22;2310;49.978;8.742;2023-02-28T10:17:25;6.00;62.10
4596;DHT22;2310;49.978;8.742;2023-02-28T10:21:31;6.40;58.70
4596;DHT22;2310;49.978;8.742;2023-02-28T10:25:32;6.30;58.20
4596;DHT22;2310;49.978;8.742;2023-02-28T10:29:33;6.20;58.40
4596;DHT22;2310;49.978;8.742;2023-02-28T10:33:35;6.40;58.80
4596;DHT22;2310;49.978;8.742;2023-02-28T10:37:41;6.70;57.00
4596;DHT22;2310;49.978;8.742;2023-02-28T10:41:43;6.60;54.30
4596;DHT22;2310;49.978;8.742;2023-02-28T10:45:56;6.90;56.00
4596;DHT22;2310;49.978;8.742;2023-02-28T10:49:58;6.00;55.00
4596;DHT22;2310;49.978;8.742;2023-02-28T10:54:00;6.30;56.20
4596;DHT22;2310;49.978;8.742;2023-02-28T10:58:02;6.20;55.40
4596;DHT22;2310;49.978;8.742;2023-02-28T11:02:33;6.40;58.10
4596;DHT22;2310;49.978;8.742;2023-02-28T11:06:33;6.50;56.80
4596;DHT22;2310;49.978;8.742;2023-02-28T11:10:35;6.80;56.10
4596;DHT22;2310;49.978;8.742;2023-02-28T11:14:40;6.70;54.70
4596;DHT22;2310;49.978;8.742;2023-02-28T11:22:47;7.20;54.30
4596;DHT22;2310;49.978;8.742;2023-02-28T11:26:48;7.10;53.20
4596;DHT22;2310;49.978;8.742;2023-02-28T11:31:02;7.60;52.80
4596;DHT22;2310;49.978;8.742;2023-02-28T11:35:21;7.10;53.60
4596;DHT22;2310;49.978;8.742;2023-02-28T11:39:24;7.30;54.00
4596;DHT22;2310;49.978;8.742;2023-02-28T11:48:11;7.20;53.30
4596;DHT22;2310;49.978;8.742;2023-02-28T11:52:21;7.20;53.90
4596;DHT22;2310;49.978;8.742;2023-02-28T11:56:31;7.20;53.90
4596;DHT22;2310;49.978;8.742;2023-02-28T12:01:01;7.30;53.50
4596;DHT22;2310;49.978;8.742;2023-02-28T12:05:32;7.40;52.20
4596;DHT22;2310;49.978;8.742;2023-02-28T12:09:49;7.40;52.10
4596;DHT22;2310;49.978;8.742;2023-02-28T12:14:13;7.90;50.80
4596;DHT22;2310;49.978;8.742;2023-02-28T12:27:06;7.80;50.50
4596;DHT22;2310;49.978;8.742;2023-02-28T12:31:15;7.80;52.00
4596;DHT22;2310;49.978;8.742;2023-02-28T12:35:19;7.70;50.60
4596;DHT22;2310;49.978;8.742;2023-02-28T12:39:24;8.00;51.20
4596;DHT22;2310;49.978;8.742;2023-02-28T12:43:32;7.80;50.60
4596;DHT22;2310;49.978;8.742;2023-02-28T12:47:34;7.20;49.50
4596;DHT22;2310;49.978;8.742;2023-02-28T12:51:35;7.20;51.00
4596;DHT22;2310;49.978;8.742;2023-02-28T12:55:59;7.20;50.60
4596;DHT22;2310;49.978;8.742;2023-02-28T13:00:12;7.20;51.80
4596;DHT22;2310;49.978;8.742;2023-02-28T13:04:27;7.10;51.40
4596;DHT22;2310;49.978;8.742;2023-02-28T13:12:54;7.20;51.00
4596;DHT22;2310;49.978;8.742;2023-02-28T13:21:24;7.40;50.40
4596;DHT22;2310;49.978;8.742;2023-02-28T13:29:42;7.10;51.20
4596;DHT22;2310;49.978;8.742;2023-02-28T13:38:09;7.40;53.20
4596;DHT22;2310;49.978;8.742;2023-02-28T13:50:52;7.80;50.20
4596;DHT22;2310;49.978;8.742;2023-02-28T13:59:44;8.20;60.10
4596;DHT22;2310;49.978;8.742;2023-02-28T14:04:01;8.00;54.40
4596;DHT22;2310;49.978;8.742;2023-02-28T14:08:04;7.80;53.00
4596;DHT22;2310;49.978;8.742;2023-02-28T14:16:46;7.60;51.80
4596;DHT22;2310;49.978;8.742;2023-02-28T14:20:49;7.40;51.90
4596;DHT22;2310;49.978;8.742;2023-02-28T14:29:53;7.10;53.10
4596;DHT22;2310;49.978;8.742;2023-02-28T14:38:17;7.60;53.10
4596;DHT22;2310;49.978;8.742;2023-02-28T14:42:37;7.60;52.40
4596;DHT22;2310;49.978;8.742;2023-02-28T14:46:47;7.50;51.80
4596;DHT22;2310;49.978;8.742;2023-02-28T14:50:55;7.30;52.30
4596;DHT22;2310;49.978;8.742;2023-02-28T14:55:05;7.30;53.40
4596;DHT22;2310;49.978;8.742;2023-02-28T14:59:29;7.50;53.20
4596;DHT22;2310;49.978;8.742;2023-02-28T15:03:33;7.50;53.40
4596;DHT22;2310;49.978;8.742;2023-02-28T15:07:35;7.60;53.00
4596;DHT22;2310;49.978;8.742;2023-02-28T15:11:38;7.80;52.80
4596;DHT22;2310;49.978;8.742;2023-02-28T15:19:53;7.40;52.60
4596;DHT22;2310;49.978;8.742;2023-02-28T15:28:00;7.80;53.40
4596;DHT22;2310;49.978;8.742;2023-02-28T15:32:04;7.70;52.20
4596;DHT22;2310;49.978;8.742;2023-02-28T15:36:15;7.80;52.60
4596;DHT22;2310;49.978;8.742;2023-02-28T15:40:38;7.80;52.50
4596;DHT22;2310;49.978;8.742;2023-02-28T15:44:40;7.60;53.00
4596;DHT22;2310;49.978;8.742;2023-02-28T15:48:53;7.40;53.60
4596;DHT22;2310;49.978;8.742;2023-02-28T15:52:54;7.40;53.30
4596;DHT22;2310;49.978;8.742;2023-02-28T15:56:57;7.30;56.20
4596;DHT22;2310;49.978;8.742;2023-02-28T16:01:36;7.20;55.30
4596;DHT22;2310;49.978;8.742;2023-02-28T16:05:20;7.20;58.70
4596;DHT22;2310;49.978;8.742;2023-02-28T16:09:24;7.20;55.40
4596;DHT22;2310;49.978;8.742;2023-02-28T16:13:25;7.00;55.80
4596;DHT22;2310;49.978;8.742;2023-02-28T16:17:29;7.00;56.40
4596;DHT22;2310;49.978;8.742;2023-02-28T16:21:30;6.90;56.60
4596;DHT22;2310;49.978;8.742;2023-02-28T16:25:41;6.90;57.40
4596;DHT22;2310;49.978;8.742;2023-02-28T16:29:43;7.00;57.40
4596;DHT22;2310;49.978;8.742;2023-02-28T16:33:46;6.80;56.80
4596;DHT22;2310;49.978;8.742;2023-02-28T16:37:48;6.80;57.20
4596;DHT22;2310;49.978;8.742;2023-02-28T16:41:51;6.60;58.20
4596;DHT22;2310;49.978;8.742;2023-02-28T16:45:56;6.70;59.00
4596;DHT22;2310;49.978;8.742;2023-02-28T16:50:00;6.60;58.90
4596;DHT22;2310;49.978;8.742;2023-02-28T16:54:01;6.40;59.60
4596;DHT22;2310;49.978;8.742;2023-02-28T16:58:03;6.30;60.20
4596;DHT22;2310;49.978;8.742;2023-02-28T17:02:09;6.30;62.00
4596;DHT22;2310;49.978;8.742;2023-02-28T17:06:19;6.20;62.60
4596;DHT22;2310;49.978;8.742;2023-02-28T17:10:25;6.10;64.10
4596;DHT22;2310;49.978;8.742;2023-02-28T17:14:26;6.00;65.90
4596;DHT22;2310;49.978;8.742;2023-02-28T17:18:28;5.80;67.20
4596;DHT22;2310;49.978;8.742;2023-02-28T17:22:31;5.80;69.50
4596;DHT22;2310;49.978;8.742;2023-02-28T17:26:33;5.80;69.80
4596;DHT22;2310;49.978;8.742;2023-02-28T17:30:34;5.80;69.90
4596;DHT22;2310;49.978;8.742;2023-02-28T17:34:36;5.90;73.60
4596;DHT22;2310;49.978;8.742;2023-02-28T17:38:38;5.80;74.10
4596;DHT22;2310;49.978;8.742;2023-02-28T17:42:39;5.60;73.90
4596;DHT22;2310;49.978;8.742;2023-02-28T17:46:41;5.50;75.50
4596;DHT22;2310;49.978;8.742;2023-02-28T17:50:43;5.50;77.20
4596;DHT22;2310;49.978;8.742;2023-02-28T17:54:44;5.50;77.70
4596;DHT22;2310;49.978;8.742;2023-02-28T17:58:46;5.40;79.50
4596;DHT22;2310;49.978;8.742;2023-02-28T18:02:47;5.30;80.40
4596;DHT22;2310;49.978;8.742;2023-02-28T18:06:48;5.20;81.80
4596;DHT22;2310;49.978;8.742;2023-02-28T18:10:53;5.00;84.80
4596;DHT22;2310;49.978;8.742;2023-02-28T18:14:54;5.00;86.00
4596;DHT22;2310;49.978;8.742;2023-02-28T18:18:55;5.00;85.50
4596;DHT22;2310;49.978;8.742;2023-02-28T18:22:57;5.00;85.80
4596;DHT22;2310;49.978;8.742;2023-02-28T18:26:58;5.00;84.90
4596;DHT22;2310;49.978;8.742;2023-02-28T18:31:05;5.10;84.50
4596;DHT22;2310;49.978;8.742;2023-02-28T18:35:07;5.10;84.00
4596;DHT22;2310;49.978;8.742;2023-02-28T18:39:08;4.90;84.70
4596;DHT22;2310;49.978;8.742;2023-02-28T18:43:11;5.00;85.80
4596;DHT22;2310;49.978;8.742;2023-02-28T18:47:13;5.00;85.50
4596;DHT22;2310;49.978;8.742;2023-02-28T18:51:21;4.90;87.30
4596;DHT22;2310;49.978;8.742;2023-02-28T18:55:19;4.90;86.60
4596;DHT22;2310;49.978;8.742;2023-02-28T18:59:21;4.60;87.50
4596;DHT22;2310;49.978;8.742;2023-02-28T19:03:22;4.60;90.40
4596;DHT22;2310;49.978;8.742;2023-02-28T19:07:23;4.40;91.40
4596;DHT22;2310;49.978;8.742;2023-02-28T19:11:25;4.40;90.90
4596;DHT22;2310;49.978;8.742;2023-02-28T19:15:26;4.30;91.80
4596;DHT22;2310;49.978;8.742;2023-02-28T19:19:27;4.30;91.80
4596;DHT22;2310;49.978;8.742;2023-02-28T19:23:30;4.20;92.90
4596;DHT22;2310;49.978;8.742;2023-02-28T19:27:31;4.20;93.70
4596;DHT22;2310;49.978;8.742;2023-02-28T19:31:33;4.00;94.80
4596;DHT22;2310;49.978;8.742;2023-02-28T19:35:35;4.00;95.80
4596;DHT22;2310;49.978;8.742;2023-02-28T19:39:36;4.00;97.20
4596;DHT22;2310;49.978;8.742;2023-02-28T19:43:39;4.10;96.90
4596;DHT22;2310;49.978;8.742;2023-02-28T19:47:41;4.10;96.90
4596;DHT22;2310;49.978;8.742;2023-02-28T19:51:42;4.00;98.10
4596;DHT22;2310;49.978;8.742;2023-02-28T19:55:45;3.90;98.40
4596;DHT22;2310;49.978;8.742;2023-02-28T19:59:47;3.70;99.50
4596;DHT22;2310;49.978;8.742;2023-02-28T20:03:51;3.80;99.90
4596;DHT22;2310;49.978;8.742;2023-02-28T20:07:52;3.70;99.90
4596;DHT22;2310;49.978;8.742;2023-02-28T20:11:54;3.50;99.90
4596;DHT22;2310;49.978;8.742;2023-02-28T20:15:59;3.50;99.90
4596;DHT22;2310;49.978;8.742;2023-02-28T20:20:01;3.50;99.90
4596;DHT22;2310;49.978;8.742;2023-02-28T20:24:03;3.60;99.90
4596;DHT22;2310;49.978;8.742;2023-02-28T20:28:04;3.50;99.90
4596;DHT22;2310;49.978;8.742;2023-02-28T20:32:06;3.70;99.90
4596;DHT22;2310;49.978;8.742;2023-02-28T20:36:08;3.50;99.90
4596;DHT22;2310;49.978;8.742;2023-02-28T20:40:11;3.50;99.90
4596;DHT22;2310;49.978;8.742;2023-02-28T20:44:13;3.40;99.90
4596;DHT22;2310;49.978;8.742;2023-02-28T20:48:14;3.50;99.90
4596;DHT22;2310;49.978;8.742;2023-02-28T20:52:16;3.40;99.90
4596;DHT22;2310;49.978;8.742;2023-02-28T20:56:19;3.40;99.90
4596;DHT22;2310;49.978;8.742;2023-02-28T21:00:20;3.20;99.90
4596;DHT22;2310;49.978;8.742;2023-02-28T21:04:22;3.20;99.90
4596;DHT22;2310;49.978;8.742;2023-02-28T21:08:23;3.10;99.90
4596;DHT22;2310;49.978;8.742;2023-02-28T21:12:25;3.20;99.90
4596;DHT22;2310;49.978;8.742;2023-02-28T21:16:27;3.20;99.90
4596;DHT22;2310;49.978;8.742;2023-02-28T21:20:29;3.20;99.90
4596;DHT22;2310;49.978;8.742;2023-02-28T21:24:31;3.10;99.90
4596;DHT22;2310;49.978;8.742;2023-02-28T21:28:33;3.20;99.90
4596;DHT22;2310;49.978;8.742;2023-02-28T21:32:35;3.30;99.90
4596;DHT22;2310;49.978;8.742;2023-02-28T21:36:38;3.10;99.90
4596;DHT22;2310;49.978;8.742;2023-02-28T21:40:40;3.00;99.90
4596;DHT22;2310;49.978;8.742;2023-02-28T21:44:42;3.30;99.90
4596;DHT22;2310;49.978;8.742;2023-02-28T21:48:44;3.30;99.90
4596;DHT22;2310;49.978;8.742;2023-02-28T21:52:45;3.10;99.90
4596;DHT22;2310;49.978;8.742;2023-02-28T21:56:47;3.00;99.90
4596;DHT22;2310;49.978;8.742;2023-02-28T22:00:50;3.00;99.90
4596;DHT22;2310;49.978;8.742;2023-02-28T22:04:51;3.10;99.90
4596;DHT22;2310;49.978;8.742;2023-02-28T22:08:55;3.10;99.90
4596;DHT22;2310;49.978;8.742;2023-02-28T22:12:57;2.90;99.90
4596;DHT22;2310;49.978;8.742;2023-02-28T22:17:00;2.90;99.90
4596;DHT22;2310;49.978;8.742;2023-02-28T22:21:02;2.90;99.90
4596;DHT22;2310;49.978;8.742;2023-02-28T22:25:04;2.80;99.90
4596;DHT22;2310;49.978;8.742;2023-02-28T22:29:06;2.90;99.90
4596;DHT22;2310;49.978;8.742;2023-02-28T22:33:07;2.80;99.90
4596;DHT22;2310;49.978;8.742;2023-02-28T22:37:08;2.90;99.90
4596;DHT22;2310;49.978;8.742;2023-02-28T22:41:11;2.80;99.90
4596;DHT22;2310;49.978;8.742;2023-02-28T22:45:12;2.80;99.90
4596;DHT22;2310;49.978;8.742;2023-02-28T22:49:14;2.60;99.90
4596;DHT22;2310;49.978;8.742;2023-02-28T22:53:15;2.70;99.90
4596;DHT22;2310;49.978;8.742;2023-02-28T22:57:17;2.80;99.90
4596;DHT22;2310;49.978;8.742;2023-02-28T23:01:20;2.70;99.90
4596;DHT22;2310;49.978;8.742;2023-02-28T23:05:22;2.60;99.90
4596;DHT22;2310;49.978;8.742;2023-02-28T23:09:23;2.60;99.90
4596;DHT22;2310;49.978;8.742;2023-02-28T23:13:25;2.80;99.90
4596;DHT22;2310;49.978;8.742;2023-02-28T23:17:26;2.50;99.90
4596;DHT22;2310;49.978;8.742;2023-02-28T23:21:28;2.60;99.90
4596;DHT22;2310;49.978;8.742;2023-02-28T23:25:29;2.40;99.90
4596;DHT22;2310;49.978;8.742;2023-02-28T23:29:32;2.30;99.90
4596;DHT22;2310;49.978;8.742;2023-02-28T23:33:34;2.10;99.90
4596;DHT22;2310;49.978;8.742;2023-02-28T23:37:37;2.10;99.90
4596;DHT22;2310;49.978;8.742;2023-02-28T23:41:39;2.00;99.90
4596;DHT22;2310;49.978;8.742;2023-02-28T23:45:40;2.10;99.90
4596;DHT22;2310;49.978;8.742;2023-02-28T23:49:43;2.20;99.90
4596;DHT22;2310;49.978;8.742;2023-02-28T23:53:47;2.10;99.90
4596;DHT22;2310;49.978;8.742;2023-02-28T23:57:48;2.00;99.90
